ADDS METAR Data INFO
IDs: Format: Raw Decoded Include TAF

Data at: 1518 UTC 11 Dec 2017

KRNP 111515Z AUTO 12004KT 1/2SM -SN OVC006 M06/M08 A2998 RMK AO2 T10621082
KRNP 111455Z AUTO 12005KT 1SM -SN OVC010 M06/M09 A2997 RMK AO2 T10631086
KRNP 111435Z AUTO 12008KT 1 1/4SM -SN BKN012 OVC017 M06/M09 A2998 RMK AO2 T10631095
KRNP 111415Z AUTO 13005KT 10SM OVC033 M06/M10 A2999 RMK AO2 T10621105
KRNP 111355Z AUTO 11005KT 10SM OVC031 M06/M11 A2999 RMK AO2 T10631107
KRNP 111335Z AUTO 13005KT 10SM OVC031 M06/M11 A3001 RMK AO2 T10631107
KRNP 111315Z AUTO 15005KT 10SM OVC031 M06/M11 A3001 RMK AO2 T10651108
KRNP 111255Z AUTO 12005KT 10SM OVC031 M06/M11 A3001 RMK AO2 T10651110
KRNP 111235Z AUTO 12005KT 10SM OVC031 M06/M11 A3003 RMK AO2 T10651111
KRNP 111215Z AUTO 11003KT 10SM OVC031 M06/M11 A3004 RMK AO2 T10651112
KRNP 111155Z AUTO 11003KT 10SM OVC033 M06/M11 A3002 RMK AO2 T10651109 11046 21066
KRNP 111135Z AUTO 10003KT 10SM OVC033 M06/M11 A3002 RMK AO2 T10651106
KRNP 111115Z AUTO 10005KT 10SM OVC033 M06/M10 A3001 RMK AO2 T10651101
KRNP 111055Z AUTO 09004KT 10SM OVC033 M06/M10 A3001 RMK AO2 T10651099
KRNP 111035Z AUTO 08003KT 10SM OVC035 M06/M10 A3001 RMK AO2 T10631096
KRNP 111015Z AUTO 08003KT 10SM OVC035 M06/M10 A3002 RMK AO2 T10631096
KRNP 110955Z AUTO 00000KT 10SM OVC035 M06/M10 A3003 RMK AO2 T10611100
KRNP 110935Z AUTO 00000KT 10SM OVC035 M06/M10 A3003 RMK AO2 T10631100
KRNP 110915Z AUTO 00000KT 10SM OVC037 M06/M10 A3004 RMK AO2 T10571100
KRNP 110855Z AUTO 00000KT 10SM OVC037 M06/M10 A3004 RMK AO2 T10571101
KRNP 110835Z AUTO 30004KT 10SM OVC037 M06/M10 A3004 RMK AO2 T10601098
KRNP 110815Z AUTO 32003KT 10SM OVC037 M06/M10 A3003 RMK AO2 T10591096
KRNP 110755Z AUTO 32003KT 10SM OVC039 M06/M09 A3002 RMK AO2 T10601092
KRNP 110735Z AUTO 00000KT 10SM BKN039 M06/M09 A3002 RMK AO2 T10641091
KRNP 110715Z AUTO 31003KT 10SM CLR M06/M08 A3002 RMK AO2 T10641085
KRNP 110655Z AUTO 32003KT 10SM SCT030 M06/M08 A3001 RMK AO2 T10591084
KRNP 110635Z AUTO 00000KT 10SM SCT016 SCT023 M05/M08 A3001 RMK AO2 T10541080
KRNP 110615Z AUTO 00000KT 10SM BKN015 BKN023 M05/M07 A3000 RMK AO2 T10461072
KRNP 110555Z AUTO 34003KT 10SM SCT015 BKN049 M05/M07 A3001 RMK AO2 T10471075 11028 21047
KRNP 110535Z AUTO 31004KT 10SM OVC049 M04/M07 A3001 RMK AO2 T10411071
KRNP 110515Z AUTO 32005KT 10SM OVC049 M04/M07 A3000 RMK AO2 T10371068
KRNP 110455Z AUTO 32006KT 10SM OVC049 M03/M06 A3000 RMK AO2 T10351065 410281069
KRNP 110435Z AUTO 31007KT 10SM SCT020 OVC047 M03/M06 A3000 RMK AO2 T10321065
KRNP 110415Z AUTO 29008KT 10SM BKN020 OVC025 M03/M06 A2999 RMK AO2 T10311062
KRNP 110355Z AUTO 30007KT 10SM BKN023 OVC049 M03/M06 A2998 RMK AO2 T10311062
KRNP 110335Z AUTO 29006KT 10SM OVC049 M03/M06 A2997 RMK AO2 T10331063
KRNP 110315Z AUTO 28008KT 10SM SCT032 SCT040 OVC047 M03/M06 A2997 RMK AO2 T10301059
KRNP 110255Z AUTO 28007KT 10SM SCT030 OVC038 M03/M05 A2997 RMK AO2 T10301055
KRNP 110235Z AUTO 28006KT 10SM UP SCT030 OVC042 M03/M05 A2996 RMK AO2 T10301053
KRNP 110215Z AUTO 28006KT 10SM BKN044 BKN050 OVC090 M03/M05 A2996 RMK AO2 T10301051
KRNP 110155Z AUTO 28006KT 10SM BKN018 BKN050 OVC090 M03/M05 A2995 RMK AO2 T10301050
KRNP 110135Z AUTO 28005KT 10SM SCT006 BKN011 OVC020 M03/M05 A2995 RMK AO2 T10301047
KRNP 110115Z AUTO 28006KT 5SM BR SCT006 OVC013 M03/M05 A2994 RMK AO2 T10281046
KRNP 110055Z AUTO 27006KT 7SM SCT008 OVC015 M03/M05 A2994 RMK AO2 T10321048
KRNP 110035Z AUTO 27007KT 5SM BR OVC008 M03/M05 A2993 RMK AO2 T10311048
KRNP 110017Z AUTO 25006KT 5SM BR OVC010 M03/M05 A2992 RMK AO2 T10351051
KRNP 102355Z AUTO 24004KT 5SM BR OVC012 M03/M05 A2992 RMK AO2 T10351053 11031 21037
KRNP 102335Z AUTO 25004KT 7SM OVC014 M03/M05 A2992 RMK AO2 T10351055
KRNP 102315Z AUTO 25004KT 7SM OVC016 M04/M05 A2991 RMK AO2 T10361055
KRNP 102255Z AUTO 23004KT 7SM OVC018 M04/M06 A2990 RMK AO2 T10371057
KRNP 102235Z AUTO 23005KT 5SM BR OVC020 M04/M06 A2989 RMK AO2 T10361060
KRNP 102215Z AUTO 23005KT 5SM HZ OVC020 M03/M06 A2988 RMK AO2 T10351065
KRNP 102155Z AUTO 23006KT 7SM OVC022 M03/M07 A2988 RMK AO2 T10351068
KRNP 102135Z AUTO 24006KT 10SM OVC022 M03/M07 A2988 RMK AO2 T10331071
KRNP 102115Z AUTO 25006KT 10SM OVC020 M03/M07 A2987 RMK AO2 T10321073
KRNP 102055Z AUTO 25008KT 10SM OVC018 M03/M07 A2986 RMK AO2 T10321072
KRNP 102035Z AUTO 25006KT 10SM OVC018 M03/M08 A2986 RMK AO2 T10321076
KRNP 102015Z AUTO 23006KT 10SM OVC020 M03/M08 A2985 RMK AO2 T10321080
KRNP 101955Z AUTO 21007KT 10SM OVC020 M03/M08 A2984 RMK AO2 T10321081
KRNP 101935Z AUTO 23006KT 10SM OVC020 M03/M08 A2984 RMK AO2 T10321081
KRNP 101915Z AUTO 22010KT 10SM OVC020 M03/M08 A2984 RMK AO2 T10321080
KRNP 101855Z AUTO 23009KT 10SM OVC022 M03/M08 A2984 RMK AO2 T10321080
KRNP 101835Z AUTO 23007KT 10SM BKN022 OVC029 M03/M08 A2984 RMK AO2 T10321080
KRNP 101815Z AUTO 22007KT 10SM BKN022 BKN029 OVC060 M03/M08 A2984 RMK AO2 T10321079
KRNP 101755Z AUTO 22010KT 10SM BKN024 BKN029 OVC060 M03/M08 A2985 RMK AO2 T10331078 11028 21037
KRNP 101735Z AUTO 22009KT 10SM OVC022 M03/M08 A2986 RMK AO2 T10341077
KRNP 101715Z AUTO 21011G14KT 10SM BKN020 OVC027 M03/M07 A2986 RMK AO2 T10321075
KRNP 101655Z AUTO 22010G17KT 10SM BKN022 OVC027 M03/M07 A2987 RMK AO2 T10301073
KRNP 101635Z AUTO 22007KT 10SM OVC022 M03/M07 A2988 RMK AO2 T10301072
KRNP 101615Z AUTO 22010KT 10SM OVC022 M03/M07 A2989 RMK AO2 T10301071
KRNP 101555Z AUTO 22010KT 10SM OVC022 M03/M07 A2989 RMK AO2 T10291071
KRNP 101535Z AUTO 23009KT 10SM OVC022 M03/M07 A2989 RMK AO2 T10301070
KRNP 101515Z AUTO 23008KT 10SM BKN020 OVC026 M03/M07 A2989 RMK AO2 T10301070
KRNP 101455Z AUTO 22008KT 10SM OVC020 M03/M07 A2988 RMK AO2 T10311071
KRNP 101435Z AUTO 22008KT 10SM BKN022 OVC046 M03/M07 A2988 RMK AO2 T10321071
KRNP 101415Z AUTO 23007KT 10SM -SN BKN022 OVC047 M03/M07 A2988 RMK AO2 T10351071
KRNP 101355Z AUTO 24008KT 10SM -SN SCT022 SCT031 OVC047 M03/M07 A2988 RMK AO2 T10351072
KRNP 101335Z AUTO 21007KT 10SM -SN SCT031 OVC047 M04/M07 A2988 RMK AO2 T10361071
KRNP 101315Z AUTO 23007KT 10SM -SN SCT020 SCT028 OVC045 M04/M07 A2989 RMK AO2 T10371070
KRNP 101255Z AUTO 23008KT 7SM -SN SCT018 OVC027 M04/M07 A2989 RMK AO2 T10361070
KRNP 101235Z AUTO 25010G15KT 5SM -SN SCT018 BKN026 OVC050 M03/M07 A2989 RMK AO2 T10351073
KRNP 101215Z AUTO 25011KT 10SM UP SCT023 BKN034 OVC049 M03/M07 A2989 RMK AO2 T10321075
KRNP 101155Z AUTO 25011KT 10SM OVC023 M03/M07 A2989 RMK AO2 T10321071 11032 21060
KRNP 101135Z AUTO 24007KT 10SM SCT018 BKN026 OVC030 M03/M06 A2989 RMK AO2 T10331065
KRNP 101115Z AUTO 23004KT 10SM SCT018 BKN023 OVC035 M04/M06 A2989 RMK AO2 T10361062
KRNP 101055Z AUTO 23005KT 10SM BKN021 OVC036 M04/M06 A2989 RMK AO2 T10391062
KRNP 101035Z AUTO 22004KT 10SM SCT023 OVC034 M04/M06 A2989 RMK AO2 T10411065
KRNP 101015Z AUTO 21005KT 10SM BKN021 OVC034 M04/M06 A2989 RMK AO2 T10421065
KRNP 100955Z AUTO 21003KT 10SM UP BKN021 BKN026 OVC037 M04/M07 A2989 RMK AO2 T10431067
KRNP 100935Z AUTO 23005KT 10SM -SN BKN021 OVC026 M04/M07 A2990 RMK AO2 T10441067
KRNP 100915Z AUTO 22004KT 10SM BKN024 OVC040 M04/M07 A2990 RMK AO2 T10451068
KRNP 100855Z AUTO 23005KT 10SM OVC040 M05/M07 A2990 RMK AO2 T10461070
KRNP 100835Z AUTO 23005KT 10SM OVC038 M05/M07 A2990 RMK AO2 T10471071
KRNP 100816Z AUTO 23004KT 10SM OVC036 M05/M07 A2990 RMK AO2 T10471072
KRNP 100755Z AUTO 23004KT 10SM OVC038 M05/M07 A2991 RMK AO2 T10501075
KRNP 100735Z AUTO 23005KT 10SM OVC040 M05/M08 A2992 RMK AO2 T10511076
KRNP 100716Z AUTO 24003KT 10SM SCT023 SCT034 OVC042 M05/M08 A2992 RMK AO2 T10511076
KRNP 100655Z AUTO 25004KT 10SM SCT023 SCT035 OVC046 M05/M08 A2992 RMK AO2 T10531076
KRNP 100635Z AUTO 25003KT 10SM OVC050 M06/M08 A2992 RMK AO2 T10561079
KRNP 100615Z AUTO 00000KT 10SM OVC050 M06/M08 A2993 RMK AO2 T10591081
KRNP 100555Z AUTO 25003KT 10SM OVC050 M06/M08 A2992 RMK AO2 T10601082 11018 21069
KRNP 100535Z AUTO 26004KT 10SM BKN055 M07/M09 A2993 RMK AO2 T10681089
KRNP 100515Z AUTO 28005KT 10SM SCT055 M06/M09 A2993 RMK AO2 T10651089
KRNP 100455Z AUTO 28005KT 10SM CLR M06/M09 A2993 RMK AO2 T10651091 410081065
KRNP 100435Z AUTO 28005KT 10SM SCT060 M06/M09 A2993 RMK AO2 T10601090
KRNP 100415Z AUTO 29005KT 10SM BKN060 M05/M08 A2992 RMK AO2 T10521084
KRNP 100355Z AUTO 29005KT 10SM SCT060 M05/M08 A2992 RMK AO2 T10531085
KRNP 100335Z AUTO 29006KT 10SM SCT049 BKN060 M05/M08 A2992 RMK AO2 T10471080